Aérodrome :
LOGIN :

S'inscrire | Disclaimer

   EN    FR    IT 

 










Légende :    VFR   VFR Marginal   IFR   IFR Intensif   IFR Très Intensif
Visi : 
Plafond : 
>= 8 km
>= 3000ft
5 à 8 km
1000 à 3000 ft
1500m à 5 km
500 à 1000 ft
800 à 1500m
200 à 500 ft
< 800m
< 200 ft
Symboles :   Orages  Brouillard  Fortes neiges  Fortes précipitations  Vent > 20 kt
SIGMETs :   Divers  Orages  Givrage  Turbulence  Onde Orograph.  Cendres Volcan.







- Altitude de l'aérodrome : 529 ft
- Code IATA : CHR
- Voir les cartes d'approche


LFLX - Chateauroux

DERNIER METAR :
  • 221400Z AUTO 24009KT 6000 -SNRA OVC004 01/01 Q1006 TEMPO 3000 RASN

METARs EXPIRÉS :
  • 221330Z AUTO 25010KT 4200 -SNRA BR OVC005 01/01 Q1006 BECMG 6000 NSW
  • 221300Z AUTO 24013KT 5000 -SNRA BR BKN007 OVC011 02/01 Q1006 TEMPO RASN BKN004
  • 221230Z AUTO 22012KT 8000 -RA OVC008 03/01 Q1006 TEMPO 3000 RASN BKN004
  • 221200Z AUTO 21014KT 7000 -RA BKN011/// OVC018/// ///TCU 03/01 Q1007 TEMPO 3000 RASN BKN004
  • 221130Z AUTO 19013KT 7000 -RA FEW012/// BKN021/// BKN028/// ///TCU 02/01 Q1007 TEMPO 3000 RASN BKN004

TAF TAF LFLX
Valide du 22 à 12h jusqu'au 23 à 18h UTC


221100Z 2212/2318 20010KT 6000 BKN008
TEMPO 2212/2215 3000 RASN BKN004
TEMPO 2215/2221 BKN004
TEMPO 2221/2309 3000 -RA BKN004
PROB30
TEMPO 2302/2307 2000 -RASN
BECMG 2308/2310 32012KT 9999 BKN012
BECMG 2310/2312 BKN020
TEMPO 2315/2318 4000 -SHRA SCT015TCU
Pas de NOTAMs connus pour ce terrain.



MET'MAP, la Météo Aéronautique d'un coup d'oeil ! - Copyright ORBIFLY Décembre 2007 - Disclaimer

ORBIFLY MET'MAP TEAM :

Programmation & Développement : Alexandra Zaïnal
Conception & Développement : Baudouin d'Aumeries
Co-Programmation & Développement : Marc-Olivier Méhu
Soutien technique & logistique : Manuel Goepfert

Contact : metmap@orbifly.com




SOURCES & CREDITS :

   NOAA